createdAt,value
2019-02-27T00:00:16.251Z,74.50
2019-02-27T00:02:49.555Z,74.43
2019-02-27T00:05:22.954Z,74.55
2019-02-27T00:07:56.348Z,75.08
2019-02-27T00:10:29.669Z,75.09
2019-02-27T00:13:03.044Z,74.87
2019-02-27T00:15:37.961Z,74.80
2019-02-27T00:18:11.486Z,74.90
2019-02-27T00:20:44.816Z,74.61
2019-02-27T00:23:18.107Z,75.03
2019-02-27T00:25:51.401Z,75.06
2019-02-27T00:28:24.713Z,74.95
2019-02-27T00:30:58.071Z,75.48
2019-02-27T00:33:31.420Z,76.37
2019-02-27T00:36:04.806Z,75.85
2019-02-27T00:38:38.120Z,75.52
2019-02-27T00:41:12.796Z,74.89
2019-02-27T00:43:46.483Z,74.89
2019-02-27T00:46:19.811Z,75.20
2019-02-27T00:48:53.107Z,75.37
2019-02-27T00:51:26.453Z,75.77
2019-02-27T00:53:59.780Z,75.95
2019-02-27T00:56:33.085Z,76.34
2019-02-27T00:59:06.395Z,76.75
2019-02-27T01:01:39.781Z,76.32
2019-02-27T01:04:13.114Z,75.82
2019-02-27T01:06:47.470Z,75.93
2019-02-27T01:09:21.539Z,75.76
2019-02-27T01:11:54.854Z,75.91
2019-02-27T01:14:28.266Z,75.88
2019-02-27T01:17:01.566Z,76.04
2019-02-27T01:19:38.285Z,77.01
2019-02-27T01:22:09.915Z,77.20
2019-02-27T01:24:43.240Z,77.00
2019-02-27T01:27:16.580Z,77.08
2019-02-27T01:29:51.601Z,78.18
2019-02-27T01:32:25.189Z,78.32
2019-02-27T01:34:58.526Z,78.02
2019-02-27T01:37:32.333Z,77.75
2019-02-27T01:40:09.135Z,77.78
2019-02-27T01:42:42.438Z,77.68
2019-02-27T01:45:20.769Z,77.54
2019-02-27T01:47:51.438Z,77.30
2019-02-27T01:50:32.862Z,77.36
2019-02-27T01:53:07.416Z,76.96
2019-02-27T01:55:41.498Z,77.15
2019-02-27T01:58:14.832Z,77.19
2019-02-27T02:00:48.128Z,77.60
2019-02-27T02:03:21.415Z,77.61
2019-02-27T02:05:58.761Z,77.54
2019-02-27T02:08:29.865Z,77.87
2019-02-27T02:11:03.176Z,78.42
2019-02-27T02:13:39.672Z,77.77
2019-02-27T02:16:28.262Z,77.83
2019-02-27T02:19:07.281Z,77.88
2019-02-27T02:21:49.883Z,78.23
2019-02-27T02:24:41.381Z,77.96
2019-02-27T02:27:26.789Z,77.60
2019-02-27T02:30:29.321Z,77.64
2019-02-27T02:33:17.909Z,78.01
2019-02-27T02:35:57.444Z,77.98
2019-02-27T02:39:04.556Z,78.68
2019-02-27T02:41:58.957Z,78.23
2019-02-27T02:44:41.029Z,78.00
2019-02-27T02:47:21.285Z,78.84
2019-02-27T02:50:22.553Z,79.18
2019-02-27T02:52:59.048Z,79.85
2019-02-27T02:55:54.484Z,79.66
2019-02-27T02:58:39.776Z,79.69
2019-02-27T03:01:16.228Z,79.30
2019-02-27T03:04:12.975Z,79.32
2019-02-27T03:06:53.977Z,79.49
2019-02-27T03:09:36.103Z,79.95
2019-02-27T03:12:18.659Z,79.81
2019-02-27T03:15:06.863Z,80.68
2019-02-27T03:18:10.777Z,80.56
2019-02-27T03:20:52.385Z,80.18
2019-02-27T03:23:51.052Z,80.42
2019-02-27T03:26:31.656Z,80.23
2019-02-27T03:29:35.550Z,80.11
2019-02-27T03:32:20.861Z,79.97
2019-02-27T03:35:02.970Z,80.43
2019-02-27T03:37:39.483Z,81.03
2019-02-27T03:40:27.939Z,81.14
2019-02-27T03:43:19.030Z,81.45
2019-02-27T03:46:10.452Z,81.78
2019-02-27T03:48:46.948Z,81.65
2019-02-27T03:51:41.374Z,81.72
2019-02-27T03:54:21.161Z,81.57
2019-02-27T03:57:18.931Z,81.39
2019-02-27T04:00:10.642Z,82.00
2019-02-27T04:02:59.267Z,82.62
2019-02-27T04:05:59.622Z,81.95
2019-02-27T04:08:45.046Z,81.31
2019-02-27T04:11:18.645Z,80.71
2019-02-27T04:13:52.066Z,80.89
2019-02-27T04:16:29.007Z,81.18
2019-02-27T04:19:04.641Z,80.98
2019-02-27T04:21:35.612Z,81.32
2019-02-27T04:24:08.928Z,81.05
2019-02-27T04:26:42.716Z,81.12
2019-02-27T04:29:16.037Z,80.85
2019-02-27T04:31:49.356Z,80.52
2019-02-27T04:34:22.645Z,80.11
2019-02-27T04:36:55.973Z,80.08
2019-02-27T04:39:29.268Z,80.88
2019-02-27T04:42:02.605Z,80.53
2019-02-27T04:44:38.847Z,80.36
2019-02-27T04:47:11.029Z,80.33
2019-02-27T04:49:44.341Z,80.13
2019-02-27T04:52:19.307Z,79.42
2019-02-27T04:54:52.718Z,78.78
2019-02-27T04:57:26.072Z,79.15
2019-02-27T04:59:59.402Z,79.02
2019-02-27T05:02:32.726Z,78.94
2019-02-27T05:05:08.633Z,79.34
2019-02-27T05:07:42.647Z,80.34
2019-02-27T05:10:15.991Z,80.67
2019-02-27T05:12:49.346Z,80.70
2019-02-27T05:15:22.684Z,80.85
2019-02-27T05:17:56.302Z,80.79
2019-02-27T05:20:29.790Z,81.20
2019-02-27T05:23:03.190Z,81.63
2019-02-27T05:25:36.509Z,82.45
2019-02-27T05:28:09.851Z,81.96
2019-02-27T05:30:45.222Z,82.72
2019-02-27T05:33:18.273Z,82.60
2019-02-27T05:35:51.669Z,82.63
2019-02-27T05:38:25.091Z,82.79
2019-02-27T05:40:59.995Z,82.12
2019-02-27T05:43:33.493Z,82.70
2019-02-27T05:46:06.775Z,83.09
2019-02-27T05:48:40.271Z,83.27
2019-02-27T05:51:13.574Z,83.69
2019-02-27T05:53:46.946Z,83.50
2019-02-27T05:56:20.264Z,84.04
2019-02-27T05:58:55.898Z,84.42
2019-02-27T06:01:28.650Z,83.97
2019-02-27T06:04:01.968Z,84.20
2019-02-27T06:06:35.314Z,84.34
2019-02-27T06:09:10.397Z,84.61
2019-02-27T06:11:43.848Z,84.66
2019-02-27T06:14:21.124Z,84.63
2019-02-27T06:16:52.364Z,84.21
2019-02-27T06:19:25.711Z,84.68
2019-02-27T06:21:59.230Z,84.18
2019-02-27T06:24:35.678Z,85.61
2019-02-27T06:27:08.993Z,85.58
2019-02-27T06:29:42.319Z,86.24
2019-02-27T06:32:15.596Z,85.61
2019-02-27T06:34:48.986Z,84.52
2019-02-27T06:37:22.307Z,83.73
2019-02-27T06:39:55.659Z,83.83
2019-02-27T06:42:29.105Z,83.13
2019-02-27T06:45:02.456Z,83.46
2019-02-27T06:47:36.224Z,84.46
2019-02-27T06:50:13.003Z,83.79
2019-02-27T06:52:46.413Z,84.08
2019-02-27T06:55:19.902Z,83.11
2019-02-27T06:57:53.273Z,83.06
2019-02-27T07:00:26.570Z,82.22
2019-02-27T07:02:59.921Z,83.05
2019-02-27T07:05:33.239Z,81.90
2019-02-27T07:08:08.284Z,81.81
2019-02-27T07:10:41.590Z,82.12
2019-02-27T07:13:14.913Z,81.83
2019-02-27T07:15:48.857Z,80.72
2019-02-27T07:18:22.419Z,79.60
2019-02-27T07:20:58.274Z,78.98
2019-02-27T07:23:30.785Z,77.19
2019-02-27T07:26:04.092Z,77.65
2019-02-27T07:28:37.521Z,77.12
2019-02-27T07:31:12.422Z,77.01
2019-02-27T07:33:46.021Z,77.82
2019-02-27T07:36:19.522Z,76.85
2019-02-27T07:38:57.186Z,68.21
2019-02-27T07:41:28.021Z,65.69
2019-02-27T07:44:01.358Z,67.27
2019-02-27T07:46:35.613Z,69.69
2019-02-27T07:49:09.145Z,72.54
2019-02-27T07:51:42.742Z,73.96
2019-02-27T07:54:15.995Z,73.99
2019-02-27T07:56:49.286Z,74.14
2019-02-27T07:59:22.612Z,74.04
2019-02-27T08:01:55.886Z,73.09
2019-02-27T08:04:29.244Z,72.82
2019-02-27T08:07:02.529Z,72.57
2019-02-27T08:09:35.934Z,71.57
2019-02-27T08:12:09.596Z,71.00
2019-02-27T08:14:43.042Z,70.70
2019-02-27T08:17:17.824Z,69.99
2019-02-27T08:19:51.415Z,69.64
2019-02-27T08:22:24.742Z,69.26
2019-02-27T08:24:58.135Z,69.87
2019-02-27T08:27:31.506Z,69.19
2019-02-27T08:30:08.078Z,68.07
2019-02-27T08:32:41.373Z,68.03
2019-02-27T08:35:16.623Z,67.95
2019-02-27T08:37:49.752Z,68.38
2019-02-27T08:40:25.144Z,67.86
2019-02-27T08:42:58.130Z,66.83
2019-02-27T08:45:31.485Z,66.37
2019-02-27T08:48:04.919Z,66.85
2019-02-27T08:50:38.220Z,66.19
2019-02-27T08:53:11.610Z,65.66
2019-02-27T08:55:45.104Z,65.33
2019-02-27T08:58:18.485Z,65.81
2019-02-27T09:00:51.972Z,65.50
2019-02-27T09:03:25.269Z,64.57
2019-02-27T09:05:58.573Z,64.35
2019-02-27T09:08:31.939Z,64.65
2019-02-27T09:11:06.631Z,63.61
2019-02-27T09:13:40.148Z,63.41
2019-02-27T09:16:13.453Z,62.65
2019-02-27T09:18:46.790Z,62.48
2019-02-27T09:21:20.140Z,62.04
2019-02-27T09:23:53.537Z,61.83
2019-02-27T09:26:26.845Z,61.74
2019-02-27T09:29:00.138Z,60.31
2019-02-27T09:31:34.718Z,59.35
2019-02-27T09:34:08.559Z,59.90
2019-02-27T09:36:43.294Z,59.62
2019-02-27T09:39:16.901Z,59.56
2019-02-27T09:41:51.242Z,59.63
2019-02-27T09:44:24.754Z,59.68
2019-02-27T09:46:58.135Z,59.97
2019-02-27T09:49:31.420Z,59.60
2019-02-27T09:52:04.827Z,59.58
2019-02-27T09:54:38.113Z,59.36
2019-02-27T09:57:11.445Z,59.51
2019-02-27T09:59:44.760Z,59.19
2019-02-27T10:02:18.117Z,58.40
2019-02-27T10:04:51.409Z,57.52
2019-02-27T10:07:24.883Z,55.64
2019-02-27T10:09:58.178Z,55.55
2019-02-27T10:12:31.731Z,54.43
2019-02-27T10:15:06.005Z,54.16
2019-02-27T10:17:41.084Z,53.38
2019-02-27T10:20:14.454Z,53.64
2019-02-27T10:22:47.812Z,53.51
2019-02-27T10:25:21.132Z,53.17
2019-02-27T10:27:54.467Z,52.92
2019-02-27T10:30:27.902Z,52.82
2019-02-27T10:33:03.264Z,52.14
2019-02-27T10:35:36.418Z,52.17
2019-02-27T10:38:09.809Z,51.52
2019-02-27T10:40:45.986Z,51.27
2019-02-27T10:43:18.357Z,50.84
2019-02-27T10:45:51.673Z,51.55
2019-02-27T10:48:25.099Z,51.15
2019-02-27T10:50:58.501Z,50.47
2019-02-27T10:53:31.848Z,49.76
2019-02-27T10:56:05.246Z,50.38
2019-02-27T10:58:38.684Z,50.57
2019-02-27T11:01:12.065Z,50.35
2019-02-27T11:03:45.420Z,49.93
2019-02-27T11:06:18.812Z,49.01
2019-02-27T11:08:52.249Z,48.04
2019-02-27T11:11:25.703Z,48.26
2019-02-27T11:13:59.029Z,47.80
2019-02-27T11:16:32.382Z,48.07
2019-02-27T11:19:05.785Z,48.25
2019-02-27T11:21:39.157Z,45.97
2019-02-27T11:24:14.546Z,45.63
2019-02-27T11:26:47.632Z,45.99
2019-02-27T11:29:23.572Z,45.54
2019-02-27T11:31:56.018Z,44.35
2019-02-27T11:34:29.380Z,45.08
2019-02-27T11:37:04.323Z,44.80
2019-02-27T11:39:37.744Z,44.57
2019-02-27T11:42:11.254Z,44.58
2019-02-27T11:44:49.420Z,43.86
2019-02-27T11:47:19.772Z,44.01
2019-02-27T11:49:53.209Z,42.71
2019-02-27T11:52:28.642Z,42.42
2019-02-27T11:55:01.654Z,41.68
2019-02-27T11:57:34.983Z,41.49
2019-02-27T12:00:14.256Z,41.53
2019-02-27T12:02:47.585Z,40.87
2019-02-27T12:05:21.055Z,41.02
2019-02-27T12:07:54.732Z,40.31
2019-02-27T12:10:31.047Z,39.47
2019-02-27T12:13:04.646Z,38.81
2019-02-27T12:15:38.177Z,38.65
2019-02-27T12:18:11.940Z,38.43
2019-02-27T12:20:45.484Z,37.97
2019-02-27T12:23:19.071Z,38.08
2019-02-27T12:25:52.579Z,37.88
2019-02-27T12:28:27.736Z,36.27
2019-02-27T12:31:01.327Z,37.10
2019-02-27T12:33:34.823Z,37.07
2019-02-27T12:36:09.020Z,37.30
2019-02-27T12:38:42.623Z,37.64
2019-02-27T12:41:16.060Z,37.66
2019-02-27T12:43:52.676Z,36.70
2019-02-27T12:46:24.560Z,37.13
2019-02-27T12:48:57.910Z,37.17
2019-02-27T12:51:31.305Z,36.14
2019-02-27T12:54:04.796Z,36.40
2019-02-27T12:56:41.534Z,35.57
2019-02-27T12:59:13.293Z,34.94
2019-02-27T13:01:50.798Z,35.47
2019-02-27T13:04:21.802Z,33.12
2019-02-27T13:06:55.181Z,32.29
2019-02-27T13:09:28.527Z,31.66
2019-02-27T13:12:01.871Z,32.81
2019-02-27T13:14:35.186Z,31.13
2019-02-27T13:17:08.596Z,31.13
2019-02-27T13:19:41.937Z,30.49
2019-02-27T13:22:15.298Z,30.60
2019-02-27T13:24:50.300Z,30.05
2019-02-27T13:27:25.161Z,30.25
2019-02-27T13:30:08.504Z,29.55
2019-02-27T13:32:33.852Z,28.82
2019-02-27T13:35:08.138Z,28.94
2019-02-27T13:37:44.510Z,28.71
2019-02-27T13:40:25.727Z,29.40
2019-02-27T13:43:00.997Z,28.57
2019-02-27T13:45:34.178Z,26.51
2019-02-27T13:48:07.579Z,25.44
2019-02-27T13:50:41.016Z,25.00
2019-02-27T13:53:14.439Z,24.81
2019-02-27T13:55:48.869Z,26.15
2019-02-27T13:58:22.338Z,26.49
2019-02-27T14:00:55.970Z,27.30
2019-02-27T14:03:29.359Z,26.97
2019-02-27T14:06:02.795Z,27.80
2019-02-27T14:08:38.181Z,28.42
2019-02-27T14:11:11.708Z,29.07
2019-02-27T14:13:45.252Z,28.34
2019-02-27T14:16:18.849Z,29.08
2019-02-27T14:18:54.114Z,29.22
2019-02-27T14:21:27.843Z,28.80
2019-02-27T14:24:01.292Z,28.80
2019-02-27T14:26:34.624Z,28.74
2019-02-27T14:29:08.839Z,28.47
2019-02-27T14:31:43.494Z,28.62
2019-02-27T14:34:17.375Z,27.83
2019-02-27T14:36:50.787Z,27.37
2019-02-27T14:39:24.177Z,27.15
2019-02-27T14:41:57.468Z,27.00
2019-02-27T14:44:31.587Z,26.96
2019-02-27T14:47:05.553Z,27.11
2019-02-27T14:49:38.905Z,27.07
2019-02-27T14:52:14.305Z,26.80
2019-02-27T14:54:47.339Z,26.01
2019-02-27T14:57:20.629Z,25.34
2019-02-27T14:59:54.100Z,25.65
2019-02-27T15:02:27.436Z,24.95
2019-02-27T15:05:06.099Z,24.51
2019-02-27T15:07:35.850Z,24.79
2019-02-27T15:10:11.826Z,24.41
2019-02-27T15:12:45.145Z,24.56
2019-02-27T15:15:24.211Z,25.07
2019-02-27T15:17:57.593Z,24.58
2019-02-27T15:20:31.290Z,23.81
2019-02-27T15:23:04.893Z,23.87
2019-02-27T15:25:42.211Z,23.63
2019-02-27T15:28:13.286Z,24.23
2019-02-27T15:30:47.347Z,24.11
2019-02-27T15:33:20.717Z,24.02
2019-02-27T15:35:55.466Z,24.29
2019-02-27T15:38:29.177Z,24.16
2019-02-27T15:41:03.365Z,24.60
2019-02-27T15:43:36.844Z,24.37
2019-02-27T15:46:10.217Z,24.45
2019-02-27T15:48:43.584Z,24.97
2019-02-27T15:51:18.472Z,24.62
2019-02-27T15:53:52.082Z,24.37
2019-02-27T15:56:25.379Z,24.39
2019-02-27T15:58:59.304Z,24.87
2019-02-27T16:01:33.714Z,24.85
2019-02-27T16:04:07.285Z,25.25
2019-02-27T16:06:40.723Z,25.78
2019-02-27T16:09:15.434Z,26.23
2019-02-27T16:11:51.490Z,26.22
2019-02-27T16:14:23.881Z,26.84
2019-02-27T16:16:57.568Z,27.19
2019-02-27T16:19:31.479Z,26.32
2019-02-27T16:22:04.928Z,26.18
2019-02-27T16:24:40.404Z,26.87
2019-02-27T16:27:13.322Z,27.29
2019-02-27T16:29:46.644Z,27.50
2019-02-27T16:32:20.240Z,28.14
2019-02-27T16:34:53.739Z,28.54
2019-02-27T16:37:27.033Z,29.29
2019-02-27T16:40:00.349Z,29.77
2019-02-27T16:42:36.435Z,31.79
2019-02-27T16:45:14.051Z,31.79
2019-02-27T16:47:47.411Z,33.20
2019-02-27T16:50:24.750Z,34.19
2019-02-27T16:52:58.079Z,34.38
2019-02-27T16:55:36.029Z,35.05
2019-02-27T16:58:06.442Z,36.12
2019-02-27T17:00:39.898Z,36.67
2019-02-27T17:03:14.000Z,37.51
2019-02-27T17:05:49.675Z,39.40
2019-02-27T17:08:22.620Z,39.96
2019-02-27T17:10:55.955Z,40.38
2019-02-27T17:13:29.301Z,41.42
2019-02-27T17:16:03.398Z,41.55
2019-02-27T17:18:36.809Z,42.76
2019-02-27T17:21:10.117Z,42.91
2019-02-27T17:23:46.587Z,41.48
2019-02-27T17:26:18.864Z,41.62
2019-02-27T17:28:53.614Z,42.25
2019-02-27T17:31:26.952Z,43.25
2019-02-27T17:34:00.261Z,44.63
2019-02-27T17:36:33.660Z,45.54
2019-02-27T17:39:07.944Z,45.32
2019-02-27T17:41:41.861Z,45.80
2019-02-27T17:44:16.430Z,46.99
2019-02-27T17:46:51.683Z,47.23
2019-02-27T17:49:25.390Z,48.20
2019-02-27T17:51:59.818Z,47.87
2019-02-27T17:54:33.172Z,48.57
2019-02-27T17:57:06.565Z,48.29
2019-02-27T17:59:42.371Z,47.71
2019-02-27T18:02:15.077Z,47.84
2019-02-27T18:04:51.141Z,47.83
2019-02-27T18:07:23.507Z,47.90
2019-02-27T18:09:58.321Z,48.59
2019-02-27T18:12:31.846Z,50.13
2019-02-27T18:15:08.369Z,51.15
2019-02-27T18:17:41.687Z,51.31
2019-02-27T18:20:15.076Z,50.25
2019-02-27T18:22:49.555Z,50.32
2019-02-27T18:25:23.768Z,51.51
2019-02-27T18:27:59.529Z,52.43
2019-02-27T18:30:32.278Z,53.12
2019-02-27T18:33:05.711Z,52.84
2019-02-27T18:35:39.041Z,53.80
2019-02-27T18:38:12.447Z,54.34
2019-02-27T18:40:45.810Z,55.17
2019-02-27T18:43:19.085Z,55.28
2019-02-27T18:45:52.415Z,55.14
2019-02-27T18:48:25.730Z,55.74
2019-02-27T18:50:59.435Z,56.18
2019-02-27T18:53:32.641Z,55.09
2019-02-27T18:56:06.094Z,54.50
2019-02-27T18:58:39.436Z,55.08
2019-02-27T19:01:13.035Z,56.29
2019-02-27T19:03:46.454Z,56.59
2019-02-27T19:06:19.858Z,57.22
2019-02-27T19:08:53.159Z,58.12
2019-02-27T19:11:26.542Z,59.15
2019-02-27T19:14:02.404Z,59.62
2019-02-27T19:16:35.050Z,59.20
2019-02-27T19:19:08.462Z,59.51
2019-02-27T19:21:41.866Z,59.64
2019-02-27T19:24:15.267Z,59.87
2019-02-27T19:26:49.508Z,60.07
2019-02-27T19:29:22.893Z,60.85
2019-02-27T19:31:56.280Z,60.67
2019-02-27T19:34:29.656Z,60.59
2019-02-27T19:37:05.235Z,61.16
2019-02-27T19:39:38.114Z,61.63
2019-02-27T19:42:13.227Z,62.44
2019-02-27T19:44:46.520Z,62.43
2019-02-27T19:47:19.831Z,61.39
2019-02-27T19:49:53.177Z,60.50
2019-02-27T19:52:28.418Z,61.56
2019-02-27T19:55:01.640Z,62.39
2019-02-27T19:57:34.958Z,62.13
2019-02-27T20:00:23.712Z,62.68
2019-02-27T20:03:01.173Z,62.39
2019-02-27T20:05:32.250Z,62.82
2019-02-27T20:08:09.871Z,63.60
2019-02-27T20:10:40.827Z,64.80
2019-02-27T20:13:14.143Z,64.75
2019-02-27T20:15:47.525Z,64.82
2019-02-27T20:18:23.426Z,65.65
2019-02-27T20:20:55.995Z,65.93
2019-02-27T20:23:29.377Z,65.70
2019-02-27T20:26:02.841Z,66.00
2019-02-27T20:28:36.241Z,65.77
2019-02-27T20:31:09.609Z,65.62
2019-02-27T20:33:42.970Z,66.32
2019-02-27T20:36:16.276Z,66.79
2019-02-27T20:38:50.858Z,66.80
2019-02-27T20:41:24.624Z,67.24
2019-02-27T20:44:00.323Z,66.22
2019-02-27T20:46:33.058Z,65.84
2019-02-27T20:49:06.339Z,66.71
2019-02-27T20:51:40.621Z,66.38
2019-02-27T20:54:14.136Z,66.20
2019-02-27T20:56:55.360Z,66.62
2019-02-27T20:59:26.084Z,66.19
2019-02-27T21:01:57.587Z,66.24
2019-02-27T21:04:32.293Z,66.59
2019-02-27T21:07:06.218Z,66.49
2019-02-27T21:09:42.290Z,66.86
2019-02-27T21:12:14.650Z,67.60
2019-02-27T21:14:48.015Z,67.67
2019-02-27T21:17:21.855Z,68.64
2019-02-27T21:19:55.303Z,68.58
2019-02-27T21:22:28.654Z,68.59
2019-02-27T21:25:01.987Z,68.52
2019-02-27T21:27:35.305Z,68.80
2019-02-27T21:30:11.803Z,69.11
2019-02-27T21:32:45.152Z,69.24
2019-02-27T21:35:18.548Z,69.67
2019-02-27T21:37:51.933Z,69.25
2019-02-27T21:40:25.283Z,68.94
2019-02-27T21:42:58.602Z,68.84
2019-02-27T21:45:31.978Z,69.25
2019-02-27T21:48:05.370Z,69.59
2019-02-27T21:50:39.854Z,70.39
2019-02-27T21:53:13.870Z,69.98
2019-02-27T21:55:47.259Z,70.22
2019-02-27T21:58:20.850Z,70.73
2019-02-27T22:00:54.158Z,70.93
2019-02-27T22:03:27.560Z,71.14
2019-02-27T22:06:00.856Z,70.04
2019-02-27T22:08:36.042Z,70.04
2019-02-27T22:11:09.285Z,69.88
2019-02-27T22:13:45.346Z,69.97
2019-02-27T22:16:17.760Z,70.43
2019-02-27T22:18:51.065Z,70.86
2019-02-27T22:21:24.361Z,69.92
2019-02-27T22:23:57.900Z,70.09
2019-02-27T22:26:31.202Z,71.17
2019-02-27T22:29:04.523Z,69.63
2019-02-27T22:31:40.258Z,68.86
2019-02-27T22:34:12.912Z,68.39
2019-02-27T22:36:46.219Z,68.33
2019-02-27T22:39:19.527Z,68.72
2019-02-27T22:41:52.838Z,68.64
2019-02-27T22:44:26.341Z,69.08
2019-02-27T22:47:01.233Z,69.89
2019-02-27T22:49:34.559Z,69.87
2019-02-27T22:52:07.901Z,70.51
2019-02-27T22:54:41.203Z,68.56
2019-02-27T22:57:14.494Z,67.85
2019-02-27T22:59:47.800Z,67.36
2019-02-27T23:02:22.207Z,67.54
2019-02-27T23:04:55.668Z,65.42
2019-02-27T23:07:28.964Z,64.64
2019-02-27T23:10:02.441Z,65.52
2019-02-27T23:12:35.762Z,65.37
2019-02-27T23:15:09.425Z,64.74
2019-02-27T23:17:42.775Z,64.06
2019-02-27T23:20:17.509Z,62.52
2019-02-27T23:22:51.194Z,62.61
2019-02-27T23:25:24.500Z,62.91
2019-02-27T23:28:00.743Z,63.24
2019-02-27T23:30:32.961Z,64.04
2019-02-27T23:33:06.271Z,64.37
2019-02-27T23:35:39.631Z,64.13
2019-02-27T23:38:12.970Z,62.74
2019-02-27T23:40:49.141Z,62.28
2019-02-27T23:43:21.335Z,61.95
2019-02-27T23:45:54.617Z,62.57
2019-02-27T23:48:27.939Z,63.80
2019-02-27T23:51:01.219Z,64.36
2019-02-27T23:53:34.554Z,64.84
2019-02-27T23:56:07.890Z,65.35
2019-02-27T23:58:41.210Z,66.05
